Time;durP1;ratioP1;P1;durP2;ratioP2;P2;SDS_P1;SDS_P2;PMS_P1;PMS_P2;Temp;Humidity;BMP_temperature;BMP_pressure;BME280_temperature;BME280_humidity;BME280_pressure;Samples;Min_cycle;Max_cycle;Signal;HPM_P1;HPM_P2
2023/06/11 00:00:14;;;;;;;7.57;4.10;;;;;;;17.60;100.00;64820.66;5051877;28;20301;-61
2023/06/11 00:02:41;;;;;;;5.63;3.85;;;;;;;17.46;100.00;64802.66;5051879;28;20259;-59
2023/06/11 00:05:09;;;;;;;6.78;3.75;;;;;;;17.26;100.00;64783.16;5051685;28;20296;-59
2023/06/11 00:07:40;;;;;;;7.18;4.28;;;;;;;17.27;100.00;64786.81;5051492;28;20208;-59
2023/06/11 00:10:07;;;;;;;5.05;3.42;;;;;;;17.41;100.00;64802.25;5051898;28;20214;-60
2023/06/11 00:12:33;;;;;;;5.28;3.97;;;;;;;17.35;100.00;64790.53;5051727;28;20213;-60
2023/06/11 00:15:04;;;;;;;8.38;3.92;;;;;;;17.35;100.00;64795.63;5051516;28;20274;-60
2023/06/11 00:17:32;;;;;;;5.18;4.28;;;;;;;17.25;100.00;64785.16;5051170;28;20280;-60
2023/06/11 00:19:58;;;;;;;5.88;3.45;;;;;;;17.17;100.00;64775.81;5051449;28;20216;-60
2023/06/11 00:22:26;;;;;;;5.30;3.85;;;;;;;17.24;100.00;64778.97;5051551;28;20217;-59
2023/06/11 00:24:51;;;;;;;5.22;3.92;;;;;;;17.13;100.00;64769.38;5051391;28;20209;-60
2023/06/11 00:27:17;;;;;;;4.28;3.53;;;;;;;17.28;100.00;64788.47;5051441;28;20266;-60
2023/06/11 00:29:42;;;;;;;7.05;4.13;;;;;;;17.46;100.00;64807.75;5051382;28;20213;-59
2023/06/11 00:32:08;;;;;;;5.60;3.90;;;;;;;17.58;100.00;64819.00;5051355;28;20218;-60
2023/06/11 00:34:33;;;;;;;4.90;3.70;;;;;;;17.52;100.00;64811.84;5051664;28;20212;-60
2023/06/11 00:36:59;;;;;;;4.00;3.22;;;;;;;17.46;100.00;64803.22;5051650;28;20582;-60
2023/06/11 00:39:25;;;;;;;4.75;3.72;;;;;;;17.45;100.00;64804.09;5051465;28;20202;-60
2023/06/11 00:41:51;;;;;;;8.15;4.07;;;;;;;17.34;100.00;64786.88;5051392;28;20205;-60
2023/06/11 00:44:21;;;;;;;4.85;3.67;;;;;;;17.29;100.00;64789.56;5051277;28;20644;-59
2023/06/11 00:46:48;;;;;;;5.32;4.45;;;;;;;17.29;100.00;64787.00;5051270;28;20216;-60
2023/06/11 00:49:14;;;;;;;8.10;4.85;;;;;;;17.29;100.00;64789.56;5051329;28;20316;-61
2023/06/11 00:51:45;;;;;;;7.50;5.00;;;;;;;17.37;100.00;64795.28;5051017;28;20205;-60
2023/06/11 00:54:16;;;;;;;9.13;5.72;;;;;;;17.33;100.00;64793.97;5050951;28;20296;-59
2023/06/11 00:56:43;;;;;;;5.72;5.13;;;;;;;17.23;100.00;64779.88;5051052;28;20447;-61
2023/06/11 00:59:13;;;;;;;5.93;5.32;;;;;;;17.25;100.00;64779.53;5051399;28;20216;-61
2023/06/11 01:01:45;;;;;;;5.93;5.32;;;;;;;17.30;100.00;64787.56;5050917;28;20640;-60
2023/06/11 01:04:17;;;;;;;5.22;4.72;;;;;;;17.52;100.00;64811.84;5049878;28;20216;-60
2023/06/11 01:06:49;;;;;;;6.53;5.50;;;;;;;17.46;100.00;64807.75;5050940;28;20209;-60
2023/06/11 01:09:19;;;;;;;7.30;5.68;;;;;;;17.52;100.00;64809.84;5051066;28;20290;-60
2023/06/11 01:11:48;;;;;;;7.65;5.75;;;;;;;17.54;100.00;64814.59;5050851;28;20284;-60
2023/06/11 01:14:17;;;;;;;7.10;5.53;;;;;;;17.66;100.00;64824.72;5050768;28;20588;-60
2023/06/11 01:16:48;;;;;;;6.75;5.63;;;;;;;17.67;100.00;64825.28;5050843;28;20736;-62
2023/06/11 01:19:23;;;;;;;7.07;5.35;;;;;;;17.65;100.00;64826.16;5051203;28;20208;-60
2023/06/11 01:21:56;;;;;;;9.73;6.00;;;;;;;17.67;100.00;64828.38;5032726;28;20208;-60
2023/06/11 01:24:29;;;;;;;9.05;5.78;;;;;;;17.76;100.00;64840.84;5050370;28;20220;-59
2023/06/11 01:26:57;;;;;;;6.60;5.90;;;;;;;17.77;100.00;64839.41;5049815;28;20208;-58
2023/06/11 01:29:23;;;;;;;6.47;5.88;;;;;;;17.75;100.00;64836.63;5052897;28;20224;-59
2023/06/11 01:31:50;;;;;;;9.02;6.28;;;;;;;17.76;100.00;64840.28;5035970;28;20258;-60
2023/06/11 01:34:16;;;;;;;10.45;6.60;;;;;;;17.78;100.00;64840.50;5054022;28;20228;-61
2023/06/11 01:36:41;;;;;;;6.35;5.75;;;;;;;17.85;100.00;64850.75;5053350;28;20200;-60
2023/06/11 01:39:07;;;;;;;6.57;5.75;;;;;;;17.85;100.00;64852.75;5036179;28;20703;-59
2023/06/11 01:41:32;;;;;;;8.02;6.07;;;;;;;17.92;100.00;64855.38;5054090;28;20285;-59
2023/06/11 01:43:57;;;;;;;6.40;5.80;;;;;;;17.92;100.00;64855.38;5054359;28;20308;-59
2023/06/11 01:46:23;;;;;;;9.25;6.47;;;;;;;17.86;100.00;64848.75;5053925;28;20197;-58
2023/06/11 01:48:49;;;;;;;7.13;6.05;;;;;;;17.82;100.00;64839.81;5036127;28;20217;-59
2023/06/11 01:51:14;;;;;;;6.60;5.80;;;;;;;17.84;100.00;64844.56;5036089;28;20173;-61
2023/06/11 01:53:41;;;;;;;9.50;6.40;;;;;;;17.86;100.00;64849.31;5053874;28;20612;-62
2023/06/11 01:56:07;;;;;;;8.35;6.63;;;;;;;17.81;100.00;64841.25;5053819;28;20200;-60
2023/06/11 01:58:32;;;;;;;11.43;7.00;;;;;;;17.85;100.00;64845.09;5053801;28;20652;-60
2023/06/11 02:00:59;;;;;;;10.63;6.32;;;;;;;17.80;100.00;64839.59;5053789;28;20691;-59
2023/06/11 02:03:25;;;;;;;8.07;5.75;;;;;;;18.02;100.00;64869.50;5053704;28;20221;-58
2023/06/11 02:05:51;;;;;;;6.47;5.40;;;;;;;18.07;100.00;64872.47;5053773;28;20220;-59
2023/06/11 02:08:16;;;;;;;6.65;5.53;;;;;;;17.90;100.00;64856.25;5053793;28;20294;-59
2023/06/11 02:10:43;;;;;;;11.63;6.10;;;;;;;17.79;100.00;64841.03;5053743;28;20252;-58
2023/06/11 02:13:09;;;;;;;12.00;5.32;;;;;;;17.80;100.00;64842.69;5053628;28;20225;-58
2023/06/11 02:15:34;;;;;;;7.18;5.68;;;;;;;17.71;100.00;64835.34;5053442;28;20208;-59
2023/06/11 02:18:00;;;;;;;8.82;5.03;;;;;;;17.76;100.00;64840.28;5052169;28;20291;-59
2023/06/11 02:20:25;;;;;;;6.75;5.40;;;;;;;17.79;100.00;64841.59;5053701;28;20328;-59
2023/06/11 02:22:50;;;;;;;7.20;5.25;;;;;;;17.63;100.00;64826.50;5053328;28;20285;-59
2023/06/11 02:25:16;;;;;;;7.55;5.20;;;;;;;17.62;100.00;64825.41;5053701;28;20194;-59
2023/06/11 02:27:41;;;;;;;5.40;4.90;;;;;;;17.63;100.00;64824.50;5053551;28;20206;-59
2023/06/11 02:30:07;;;;;;;5.68;5.03;;;;;;;17.73;100.00;64835.00;5053125;28;20683;-59
2023/06/11 02:32:33;;;;;;;6.13;5.05;;;;;;;17.78;100.00;64840.50;5053339;28;20213;-59
2023/06/11 02:34:58;;;;;;;6.05;5.10;;;;;;;17.68;100.00;64832.00;5053050;28;20742;-59
2023/06/11 02:37:24;;;;;;;5.60;4.93;;;;;;;17.56;100.00;64813.69;5053184;28;20273;-59
2023/06/11 02:39:49;;;;;;;6.90;5.40;;;;;;;17.49;100.00;64811.63;5052880;28;20296;-58
2023/06/11 02:42:15;;;;;;;6.78;5.15;;;;;;;17.50;100.00;64810.19;5053188;28;20190;-58
2023/06/11 02:44:40;;;;;;;10.00;5.45;;;;;;;17.49;100.00;64809.06;5053109;28;20212;-59
2023/06/11 02:47:06;;;;;;;6.95;5.00;;;;;;;17.48;100.00;64810.50;5053337;28;20293;-59
2023/06/11 02:49:31;;;;;;;6.13;5.38;;;;;;;17.43;100.00;64804.44;5053381;28;20224;-59
2023/06/11 02:51:57;;;;;;;7.28;4.97;;;;;;;17.42;100.00;64801.34;5053062;28;20206;-59
2023/06/11 02:54:22;;;;;;;6.53;5.25;;;;;;;17.33;100.00;64788.34;5053169;28;20745;-59
2023/06/11 02:56:48;;;;;;;7.78;5.55;;;;;;;17.30;100.00;64787.56;5052858;28;20197;-59
2023/06/11 02:59:13;;;;;;;9.52;5.18;;;;;;;17.29;100.00;64786.47;5053221;28;20244;-58
2023/06/11 03:01:39;;;;;;;9.02;5.43;;;;;;;17.28;100.00;64785.38;5052936;28;20270;-57
2023/06/11 03:04:05;;;;;;;9.50;5.40;;;;;;;17.30;100.00;64790.66;5052800;28;20217;-59
2023/06/11 03:06:31;;;;;;;7.85;5.32;;;;;;;17.51;100.00;64813.28;5052878;28;20201;-59
2023/06/11 03:08:57;;;;;;;7.82;5.35;;;;;;;17.61;100.00;64819.75;5052625;28;20217;-58
2023/06/11 03:11:23;;;;;;;6.72;5.05;;;;;;;17.53;100.00;64810.41;5052652;28;20266;-60
2023/06/11 03:13:48;;;;;;;5.78;4.93;;;;;;;17.71;100.00;64835.34;5051237;28;20231;-61
2023/06/11 03:16:14;;;;;;;8.25;5.72;;;;;;;17.63;100.00;64823.97;5052711;28;20730;-59
2023/06/11 03:18:39;;;;;;;11.35;4.90;;;;;;;17.58;100.00;64819.00;5052796;28;20209;-59
2023/06/11 03:21:05;;;;;;;8.45;5.35;;;;;;;17.60;100.00;64818.66;5052373;28;20212;-58
2023/06/11 03:23:30;;;;;;;5.03;4.45;;;;;;;17.83;100.00;64846.00;5052617;28;20201;-59
2023/06/11 03:25:55;;;;;;;7.90;4.75;;;;;;;17.86;100.00;64849.31;5052628;28;20288;-60
2023/06/11 03:28:21;;;;;;;4.43;4.03;;;;;;;17.88;100.00;64851.50;5052468;28;20216;-58
2023/06/11 03:30:46;;;;;;;8.07;4.60;;;;;;;17.79;100.00;64839.06;5052383;28;20194;-57
2023/06/11 03:33:12;;;;;;;7.05;4.55;;;;;;;17.75;100.00;64839.75;5052199;28;20676;-59
2023/06/11 03:35:37;;;;;;;7.63;5.15;;;;;;;17.61;100.00;64821.75;5052388;28;20201;-58
2023/06/11 03:38:03;;;;;;;7.13;4.30;;;;;;;17.64;100.00;64822.50;5052278;28;20212;-59
2023/06/11 03:40:28;;;;;;;6.43;4.88;;;;;;;17.52;100.00;64812.38;5052230;28;20193;-59
2023/06/11 03:42:53;;;;;;;5.93;4.88;;;;;;;17.72;100.00;64833.88;5052201;28;20338;-59
2023/06/11 03:45:19;;;;;;;7.47;5.25;;;;;;;17.80;100.00;64842.69;5052226;28;20212;-60
2023/06/11 03:47:44;;;;;;;9.75;4.70;;;;;;;17.80;100.00;64840.16;5052144;28;20608;-60
2023/06/11 03:50:10;;;;;;;5.90;5.00;;;;;;;17.63;100.00;64821.94;5051461;28;20205;-59
2023/06/11 03:52:36;;;;;;;5.68;5.03;;;;;;;17.64;100.00;64822.50;5051558;28;20220;-58
2023/06/11 03:55:02;;;;;;;7.35;4.90;;;;;;;17.70;100.00;64831.66;5051984;28;20292;-60
2023/06/11 03:57:27;;;;;;;6.00;4.93;;;;;;;17.69;100.00;64830.03;5052011;28;20288;-59
2023/06/11 03:59:53;;;;;;;7.95;4.90;;;;;;;17.53;100.00;64816.03;5051911;28;20592;-58
2023/06/11 04:02:18;;;;;;;5.25;4.75;;;;;;;17.67;100.00;64825.28;5050557;28;20255;-58
2023/06/11 04:04:44;;;;;;;6.32;4.65;;;;;;;17.87;100.00;64847.88;5052049;28;20231;-59
2023/06/11 04:07:09;;;;;;;6.00;4.88;;;;;;;17.88;100.00;64848.97;5051804;28;20691;-59
2023/06/11 04:09:35;;;;;;;5.05;4.55;;;;;;;17.84;100.00;64847.09;5051576;28;20228;-58
2023/06/11 04:12:00;;;;;;;6.85;5.45;;;;;;;17.79;100.00;64843.59;5051718;28;20213;-59
2023/06/11 04:14:25;;;;;;;9.10;5.38;;;;;;;17.69;100.00;64830.03;5051680;28;20583;-59
2023/06/11 04:16:58;;;;;;;10.88;5.60;;;;;;;17.81;100.00;64843.25;5051634;28;20193;-59
2023/06/11 04:19:23;;;;;;;7.78;5.63;;;;;;;17.74;100.00;64835.53;5052103;28;20226;-59
2023/06/11 04:21:49;;;;;;;9.02;5.70;;;;;;;17.73;100.00;64834.44;5051439;28;20627;-60
2023/06/11 04:24:15;;;;;;;11.15;5.60;;;;;;;17.81;100.00;64843.81;5051878;28;20571;-59
2023/06/11 04:26:40;;;;;;;8.93;5.78;;;;;;;17.90;100.00;64850.59;5051455;28;20194;-59
2023/06/11 04:29:08;;;;;;;8.93;5.97;;;;;;;17.98;100.00;64862.53;5051754;28;20223;-58
2023/06/11 04:31:33;;;;;;;10.73;5.75;;;;;;;17.98;100.00;64859.44;5051366;28;20267;-58
2023/06/11 04:34:03;;;;;;;6.50;5.85;;;;;;;17.94;100.00;64855.03;5051357;28;20225;-59
2023/06/11 04:36:29;;;;;;;8.52;6.03;;;;;;;17.94;100.00;64860.13;5033469;28;20209;-59
2023/06/11 04:38:55;;;;;;;9.63;5.65;;;;;;;18.19;100.00;64885.69;5051142;28;20213;-58
2023/06/11 04:41:23;;;;;;;6.03;5.25;;;;;;;18.36;100.00;64901.88;5051242;28;20246;-58
2023/06/11 04:43:49;;;;;;;5.80;4.80;;;;;;;18.58;100.00;64928.19;5049986;28;20217;-59
2023/06/11 04:46:15;;;;;;;6.68;4.80;;;;;;;18.36;100.00;64904.44;5051215;28;20205;-58
2023/06/11 04:48:41;;;;;;;6.10;5.25;;;;;;;18.37;100.00;64905.56;5051428;28;20217;-61
2023/06/11 04:51:07;;;;;;;4.57;3.70;;;;;;;18.58;100.00;64933.28;5051052;28;20679;-60
2023/06/11 04:53:36;;;;;;;7.07;4.35;;;;;;;18.95;100.00;64966.44;5051244;28;20221;-60
2023/06/11 04:56:03;;;;;;;4.75;4.15;;;;;;;19.22;100.00;64996.25;5051336;28;20303;-58
2023/06/11 04:58:30;;;;;;;10.38;5.15;;;;;;;19.25;100.00;65002.09;5051505;28;20774;-58
2023/06/11 05:00:56;;;;;;;5.53;4.82;;;;;;;19.22;100.00;64998.25;5051174;28;20202;-58
2023/06/11 05:03:31;;;;;;;8.30;5.70;;;;;;;19.16;100.00;64989.06;5050042;28;20255;-58
2023/06/11 05:05:57;;;;;;;5.72;4.55;;;;;;;19.02;100.00;64976.19;5050784;28;20201;-58
2023/06/11 05:08:25;;;;;;;4.95;4.45;;;;;;;19.01;100.00;64972.50;5050591;28;20250;-59
2023/06/11 05:10:59;;;;;;;5.68;5.13;;;;;;;18.95;100.00;64969.00;5050968;28;20193;-58
2023/06/11 05:13:25;;;;;;;5.43;4.80;;;;;;;18.89;100.00;64957.28;5050752;28;20279;-58
2023/06/11 05:15:54;;;;;;;5.20;4.32;;;;;;;18.95;100.00;64966.44;5050831;28;20564;-58
2023/06/11 05:18:20;;;;;;;7.13;5.03;;;;;;;18.91;100.00;64964.59;5050908;28;20237;-58
2023/06/11 05:20:48;;;;;;;8.27;5.35;;;;;;;18.91;100.00;64964.59;5050763;28;20225;-58
2023/06/11 05:23:17;;;;;;;12.43;5.43;;;;;;;18.95;100.00;64966.44;5050767;28;20270;-58
2023/06/11 05:25:50;;;;;;;9.60;5.38;;;;;;;18.86;100.00;64955.97;5050837;28;20201;-58
2023/06/11 05:28:16;;;;;;;8.73;5.00;;;;;;;18.93;100.00;64966.25;5050821;28;20213;-59
2023/06/11 05:30:45;;;;;;;6.93;5.38;;;;;;;18.90;100.00;64965.50;5050585;28;20232;-58
2023/06/11 05:33:11;;;;;;;6.10;5.00;;;;;;;18.76;100.00;64947.50;5050567;28;20221;-63
2023/06/11 05:35:38;;;;;;;12.50;5.18;;;;;;;18.69;100.00;64939.75;5050529;28;20205;-58
2023/06/11 05:38:10;;;;;;;7.25;5.40;;;;;;;18.74;100.00;64947.84;5050644;28;20213;-58
2023/06/11 05:40:37;;;;;;;7.10;4.85;;;;;;;18.62;100.00;64935.16;5050479;28;20210;-58
2023/06/11 05:43:06;;;;;;;9.57;6.38;;;;;;;18.64;100.00;64931.69;5050474;28;20193;-59
2023/06/11 05:45:32;;;;;;;7.05;5.55;;;;;;;18.87;100.00;64959.63;5050529;28;20205;-58
2023/06/11 05:47:59;;;;;;;6.72;6.00;;;;;;;18.95;100.00;64966.44;5050479;28;20709;-59
2023/06/11 05:50:24;;;;;;;9.73;5.22;;;;;;;18.99;100.00;64972.84;5050584;28;20181;-58
2023/06/11 05:52:50;;;;;;;7.90;5.47;;;;;;;19.08;100.00;64980.81;5050380;28;20714;-59
2023/06/11 05:55:15;;;;;;;8.23;5.10;;;;;;;18.73;100.00;64941.63;5050335;28;20576;-58
2023/06/11 05:57:41;;;;;;;6.28;5.00;;;;;;;18.49;100.00;64920.81;5050410;28;20208;-58
2023/06/11 06:00:09;;;;;;;7.95;5.68;;;;;;;18.56;100.00;64925.97;5050286;28;20641;-59
2023/06/11 06:02:35;;;;;;;9.13;5.00;;;;;;;18.70;100.00;64943.44;5050456;28;20678;-57
2023/06/11 06:05:00;;;;;;;8.25;5.15;;;;;;;18.53;100.00;64922.66;5050331;28;20210;-58
2023/06/11 06:07:26;;;;;;;5.95;5.32;;;;;;;19.22;100.00;64998.81;5050093;28;20193;-61
2023/06/11 06:09:51;;;;;;;6.00;5.30;;;;;;;18.99;100.00;64972.84;5050069;28;20276;-61
2023/06/11 06:12:16;;;;;;;9.55;5.22;;;;;;;19.03;100.00;64975.28;5050015;28;20271;-60
2023/06/11 06:14:42;;;;;;;7.40;5.78;;;;;;;18.90;100.00;64962.94;5052303;28;20221;-60
2023/06/11 06:17:07;;;;;;;7.88;5.22;;;;;;;19.05;100.00;64977.47;5053673;28;20201;-61
2023/06/11 06:19:33;;;;;;;6.00;5.03;;;;;;;19.07;100.00;64981.69;5053662;28;20256;-62
2023/06/11 06:21:58;;;;;;;8.75;5.57;;;;;;;19.15;100.00;64990.50;5053730;28;20640;-61
2023/06/11 06:24:24;;;;;;;5.72;5.10;;;;;;;19.13;100.00;64985.75;5053362;28;20300;-58
2023/06/11 06:26:56;;;;;;;7.55;5.50;;;;;;;19.19;100.00;64992.94;5053269;28;20208;-58
2023/06/11 06:29:28;;;;;;;7.75;5.10;;;;;;;19.47;100.00;65025.88;5035632;28;20252;-60
2023/06/11 06:31:54;;;;;;;6.88;5.43;;;;;;;19.52;100.00;65031.38;5053273;28;20776;-58
2023/06/11 06:34:19;;;;;;;6.60;4.80;;;;;;;19.45;100.00;65021.13;5035412;28;20303;-58
2023/06/11 06:36:45;;;;;;;7.22;5.40;;;;;;;19.33;100.00;65007.88;5053218;28;20190;-58
2023/06/11 06:39:11;;;;;;;6.20;5.28;;;;;;;19.27;100.00;64998.66;5053340;28;20209;-58
2023/06/11 06:41:37;;;;;;;8.90;5.53;;;;;;;19.27;100.00;65003.75;5053047;28;20524;-57
2023/06/11 06:44:03;;;;;;;6.22;5.13;;;;;;;19.50;100.00;65028.63;5051832;28;20221;-57
2023/06/11 06:46:28;;;;;;;11.75;5.70;;;;;;;20.00;100.00;65086.97;5053200;28;20644;-60
2023/06/11 06:48:54;;;;;;;6.65;5.18;;;;;;;19.79;100.00;65061.22;5053205;28;20209;-60
2023/06/11 06:51:20;;;;;;;10.88;5.72;;;;;;;19.89;100.00;65072.25;5052942;28;20208;-62
2023/06/11 06:53:49;;;;;;;8.52;5.07;;;;;;;19.90;100.00;65072.78;5052905;28;20597;-61
2023/06/11 06:56:14;;;;;;;8.27;5.55;;;;;;;19.68;99.16;65049.06;5052877;28;20197;-61
2023/06/11 06:58:40;;;;;;;8.07;6.05;;;;;;;19.70;98.72;65048.72;5053158;28;20217;-61
2023/06/11 07:01:05;;;;;;;7.65;5.57;;;;;;;19.62;99.23;65042.44;5052878;28;20572;-61
2023/06/11 07:03:33;;;;;;;10.18;5.47;;;;;;;19.66;99.88;65043.75;5052816;28;20235;-60
2023/06/11 07:05:59;;;;;;;6.35;4.90;;;;;;;19.78;98.67;65059.53;5052654;28;20193;-60
2023/06/11 07:08:26;;;;;;;7.22;5.45;;;;;;;19.92;97.80;65072.44;5052683;28;20598;-57
2023/06/11 07:10:55;;;;;;;7.93;5.00;;;;;;;20.01;97.11;65082.41;5052881;28;20257;-58
2023/06/11 07:13:22;;;;;;;7.28;5.05;;;;;;;20.21;96.67;65103.97;5052742;28;20278;-58
2023/06/11 07:15:48;;;;;;;6.47;4.97;;;;;;;20.47;96.47;65135.25;5052780;28;20182;-58
2023/06/11 07:18:13;;;;;;;11.45;6.15;;;;;;;20.60;96.46;65147.63;5052516;28;20210;-57
2023/06/11 07:20:39;;;;;;;6.03;5.20;;;;;;;20.34;95.68;65118.88;5052344;28;20277;-58
2023/06/11 07:23:04;;;;;;;7.07;5.25;;;;;;;20.27;94.27;65108.03;5052522;28;20210;-57
2023/06/11 07:25:31;;;;;;;11.63;5.70;;;;;;;20.24;93.82;65105.25;5051307;28;20190;-58
2023/06/11 07:28:02;;;;;;;7.65;5.03;;;;;;;20.31;93.62;65115.00;5052535;28;20201;-57
2023/06/11 07:30:28;;;;;;;7.13;5.70;;;;;;;20.25;95.02;65108.38;5052353;28;20202;-58
2023/06/11 07:32:54;;;;;;;9.98;5.30;;;;;;;20.55;93.60;65144.63;5052259;28;20225;-57
2023/06/11 07:35:20;;;;;;;12.48;5.95;;;;;;;20.50;92.26;65139.09;5052207;28;20211;-58
2023/06/11 07:37:47;;;;;;;8.57;4.97;;;;;;;20.57;87.35;65144.28;5052139;28;20185;-57
2023/06/11 07:40:13;;;;;;;8.30;5.43;;;;;;;20.50;88.98;65136.53;5052449;28;20260;-59
2023/06/11 07:42:39;;;;;;;7.18;5.90;;;;;;;20.50;89.69;65136.00;5052231;28;20193;-58
2023/06/11 07:45:08;;;;;;;9.43;5.95;;;;;;;20.50;87.47;65136.00;5052191;28;20305;-57
2023/06/11 07:47:33;;;;;;;8.48;5.15;;;;;;;20.64;90.10;65151.47;5052037;28;20197;-58
2023/06/11 07:49:58;;;;;;;6.60;5.18;;;;;;;20.75;87.52;65161.06;5052050;28;20760;-58
2023/06/11 07:52:24;;;;;;;8.10;5.00;;;;;;;20.77;86.42;65165.84;5052084;28;20705;-58
2023/06/11 07:54:49;;;;;;;8.80;5.60;;;;;;;20.69;84.96;65159.56;5051955;28;20213;-58
2023/06/11 07:57:15;;;;;;;8.50;5.50;;;;;;;20.94;83.77;65184.63;5051967;28;20204;-57
2023/06/11 07:59:43;;;;;;;8.65;6.13;;;;;;;20.90;84.77;65178.22;5051984;28;20225;-57
2023/06/11 08:02:09;;;;;;;7.88;5.13;;;;;;;21.15;87.29;65205.31;5051806;28;20663;-57
2023/06/11 08:04:35;;;;;;;5.82;4.78;;;;;;;21.58;85.37;65254.88;5050578;28;20633;-61
2023/06/11 08:07:01;;;;;;;7.03;5.85;;;;;;;21.70;85.76;65268.72;5050358;28;20212;-60
2023/06/11 08:09:26;;;;;;;8.70;5.63;;;;;;;21.81;86.36;65282.34;5052031;28;20221;-56
2023/06/11 08:11:52;;;;;;;9.23;5.20;;;;;;;21.89;84.15;65288.66;5051563;28;20679;-57
2023/06/11 08:14:19;;;;;;;9.73;5.22;;;;;;;21.99;81.82;65299.72;5051908;28;20213;-57
2023/06/11 08:16:45;;;;;;;9.80;5.80;;;;;;;22.10;83.79;65309.88;5033700;28;20189;-57
2023/06/11 08:19:11;;;;;;;10.93;5.25;;;;;;;22.11;78.27;65313.53;5051687;28;20351;-59
2023/06/11 08:21:37;;;;;;;6.05;5.05;;;;;;;22.01;79.68;65301.91;5052176;28;20201;-59
2023/06/11 08:24:03;;;;;;;7.65;5.30;;;;;;;22.03;81.14;65304.13;5067423;22;20238;-58
2023/06/11 08:26:28;;;;;;;8.85;5.78;;;;;;;22.22;80.67;65327.75;5071502;28;20703;-58
2023/06/11 08:28:54;;;;;;;9.20;5.28;;;;;;;22.46;77.32;65352.28;5071408;28;20275;-60
2023/06/11 08:31:19;;;;;;;8.18;6.00;;;;;;;22.68;81.11;65373.00;5071590;28;20181;-58
2023/06/11 08:33:45;;;;;;;10.05;6.22;;;;;;;22.85;81.16;65394.38;5071572;28;20273;-58
2023/06/11 08:36:10;;;;;;;8.38;5.60;;;;;;;23.07;75.66;65419.28;5071408;28;20189;-57
2023/06/11 08:38:36;;;;;;;7.38;5.53;;;;;;;23.12;78.87;65424.28;5071498;28;20687;-57
2023/06/11 08:41:01;;;;;;;7.38;5.18;;;;;;;23.23;74.99;65434.44;5071333;28;20621;-57
2023/06/11 08:43:27;;;;;;;10.40;5.53;;;;;;;23.07;76.94;65419.28;5071760;28;20219;-62
2023/06/11 08:45:53;;;;;;;6.55;5.25;;;;;;;23.15;79.66;65427.59;5071170;28;20258;-61
2023/06/11 08:48:24;;;;;;;6.63;4.32;;;;;;;23.51;78.16;65466.97;5071308;28;20686;-60
2023/06/11 08:50:50;;;;;;;8.52;5.15;;;;;;;23.62;75.06;65479.16;5071170;28;20196;-61
2023/06/11 08:53:16;;;;;;;5.85;4.75;;;;;;;23.68;73.11;65486.34;5070924;28;20601;-56
2023/06/11 08:55:44;;;;;;;9.73;5.22;;;;;;;23.56;70.64;65473.06;5071151;28;20203;-58
2023/06/11 08:58:11;;;;;;;4.95;4.28;;;;;;;23.71;71.19;65489.69;5071283;28;20227;-58
2023/06/11 09:00:37;;;;;;;6.70;5.03;;;;;;;23.86;71.99;65505.75;5070886;28;20196;-57
2023/06/11 09:03:04;;;;;;;7.32;4.50;;;;;;;23.87;71.64;65507.41;5071278;28;20201;-62
2023/06/11 09:05:32;;;;;;;10.40;4.78;;;;;;;23.92;66.19;65509.81;5071078;28;20205;-58
2023/06/11 09:07:57;;;;;;;4.55;4.10;;;;;;;24.06;71.04;65527.94;5070754;28;20254;-56
2023/06/11 09:10:24;;;;;;;8.68;4.97;;;;;;;24.24;71.15;65545.31;5070769;28;20204;-57
2023/06/11 09:12:49;;;;;;;6.35;5.00;;;;;;;24.37;69.08;65564.91;5070724;28;20285;-57
2023/06/11 09:15:16;;;;;;;5.32;4.47;;;;;;;24.52;67.21;65575.81;5070775;28;20643;-57
2023/06/11 09:17:44;;;;;;;13.35;7.65;;;;;;;24.66;68.46;65594.50;5070677;28;20201;-57
2023/06/11 09:20:13;;;;;;;7.75;5.78;;;;;;;24.81;68.32;65608.56;5070772;28;20220;-57
2023/06/11 09:22:40;;;;;;;8.32;5.10;;;;;;;24.83;66.60;65613.34;5070987;28;20246;-62
2023/06/11 09:25:16;;;;;;;5.72;4.18;;;;;;;24.90;65.33;65618.56;5070789;28;20231;-58
2023/06/11 09:27:42;;;;;;;8.57;4.95;;;;;;;24.70;61.98;65593.78;5070832;28;20258;-57
2023/06/11 09:30:19;;;;;;;7.82;4.70;;;;;;;24.26;65.94;65550.09;5070713;28;20279;-57
2023/06/11 09:32:46;;;;;;;6.15;4.47;;;;;;;24.64;64.45;65591.72;5070474;28;20682;-57
2023/06/11 09:35:13;;;;;;;6.10;4.78;;;;;;;24.81;64.10;65611.13;5070649;28;20231;-59
2023/06/11 09:37:47;;;;;;;4.97;4.47;;;;;;;24.68;61.39;65594.13;5070325;28;20201;-59
2023/06/11 09:40:17;;;;;;;7.07;5.28;;;;;;;24.91;60.57;65624.81;5070651;28;20205;-60
2023/06/11 09:42:44;;;;;;;6.45;4.75;;;;;;;24.93;65.85;65621.88;5070543;28;20201;-60
2023/06/11 09:45:19;;;;;;;8.07;5.70;;;;;;;25.01;65.74;65632.22;5070482;28;20209;-60
2023/06/11 09:47:46;;;;;;;7.22;6.53;;;;;;;24.88;64.86;65616.34;5070213;28;20287;-60
2023/06/11 09:50:16;;;;;;;9.43;5.60;;;;;;;25.17;66.46;65652.56;5072902;28;20706;-59
2023/06/11 09:52:42;;;;;;;7.97;5.40;;;;;;;25.34;59.81;65666.25;5073921;28;20217;-60
2023/06/11 09:55:09;;;;;;;6.35;5.18;;;;;;;25.32;62.04;65664.59;5073907;28;20201;-61
2023/06/11 09:57:38;;;;;;;7.20;4.90;;;;;;;25.06;62.44;65632.59;5073979;28;20734;-61
2023/06/11 10:00:10;;;;;;;9.15;5.40;;;;;;;24.86;62.50;65616.69;5073720;28;20207;-62
2023/06/11 10:02:40;;;;;;;5.32;4.80;;;;;;;24.69;63.47;65597.81;5074004;28;20260;-61
2023/06/11 10:05:07;;;;;;;7.05;5.13;;;;;;;25.02;63.25;65633.31;5073660;28;20200;-60
2023/06/11 10:07:40;;;;;;;7.35;5.30;;;;;;;25.36;64.47;65669.03;5055642;28;20197;-59
2023/06/11 10:10:08;;;;;;;8.55;4.93;;;;;;;25.39;63.19;65671.81;5073496;28;20296;-60
2023/06/11 10:12:33;;;;;;;6.43;4.82;;;;;;;25.68;54.79;65706.59;5073491;28;20225;-62
2023/06/11 10:14:59;;;;;;;15.80;10.85;;;;;;;26.03;58.71;65744.91;5073450;28;20212;-60
2023/06/11 10:17:25;;;;;;;9.98;7.43;;;;;;;26.27;59.42;65771.59;5073324;28;20193;-61
2023/06/11 10:19:51;;;;;;;7.38;5.32;;;;;;;25.78;53.64;65715.69;5073648;28;20246;-56
2023/06/11 10:22:35;;;;;;;7.68;4.75;;;;;;;25.54;55.39;65694.19;5073400;28;20658;-57
2023/06/11 10:25:02;;;;;;;5.00;4.25;;;;;;;25.16;57.40;65649.44;5073351;28;20200;-56
2023/06/11 10:27:38;;;;;;;9.13;4.93;;;;;;;25.09;58.61;65638.53;5073411;28;20197;-57
2023/06/11 10:30:06;;;;;;;9.48;5.55;;;;;;;24.96;61.10;65627.78;5055513;28;20209;-59
2023/06/11 10:32:32;;;;;;;7.32;5.32;;;;;;;24.99;60.50;65631.09;5055340;28;20205;-59
2023/06/11 10:35:00;;;;;;;6.47;4.70;;;;;;;25.02;56.27;65630.75;5073337;28;20223;-57
2023/06/11 10:37:29;;;;;;;6.35;5.47;;;;;;;24.96;55.75;65625.22;5073094;28;20192;-60
2023/06/11 10:39:54;;;;;;;7.95;4.95;;;;;;;25.07;58.03;65636.84;5073214;28;20212;-60
2023/06/11 10:42:27;;;;;;;9.02;5.30;;;;;;;24.99;57.32;65625.94;5073236;28;20200;-60
2023/06/11 10:44:57;;;;;;;5.00;4.50;;;;;;;25.24;58.59;65655.72;5073102;28;20209;-61
2023/06/11 10:47:23;;;;;;;5.40;4.22;;;;;;;25.72;59.42;65711.03;5072945;28;20283;-57
2023/06/11 10:49:49;;;;;;;6.70;4.80;;;;;;;25.93;57.71;65731.22;5054943;28;20212;-57
2023/06/11 10:52:15;;;;;;;6.85;4.68;;;;;;;25.55;54.77;65690.13;5072981;28;20189;-57
2023/06/11 10:54:42;;;;;;;6.03;5.43;;;;;;;25.32;58.26;65666.63;5073247;28;20217;-58
2023/06/11 10:57:08;;;;;;;5.68;4.88;;;;;;;25.55;56.17;65689.59;5072771;28;20254;-59
2023/06/11 10:59:34;;;;;;;6.32;5.07;;;;;;;25.81;54.15;65718.47;5067891;23;20218;-58
2023/06/11 11:02:00;;;;;;;5.50;4.82;;;;;;;26.56;52.96;65801.78;5052803;28;20694;-59
2023/06/11 11:04:26;;;;;;;7.00;4.50;;;;;;;26.78;55.23;65825.13;5052243;28;20205;-58
2023/06/11 11:07:03;;;;;;;5.90;4.53;;;;;;;26.50;48.51;65797.16;5052725;28;20196;-58
2023/06/11 11:09:29;;;;;;;5.25;4.55;;;;;;;26.52;50.85;65796.78;5053192;28;20231;-59
2023/06/11 11:11:58;;;;;;;6.78;4.63;;;;;;;27.05;51.67;65857.75;5052497;28;20205;-59
2023/06/11 11:14:24;;;;;;;10.52;4.90;;;;;;;27.36;50.38;65887.59;5053051;28;20307;-58
2023/06/11 11:16:50;;;;;;;5.30;4.60;;;;;;;27.50;50.67;65910.38;5052754;28;20227;-59
2023/06/11 11:19:15;;;;;;;8.52;4.35;;;;;;;27.22;50.86;65874.59;5052619;28;20679;-58
2023/06/11 11:21:42;;;;;;;7.65;4.35;;;;;;;26.53;53.22;65800.47;5051117;28;20213;-59
2023/06/11 11:24:12;;;;;;;8.07;4.90;;;;;;;25.83;55.90;65722.72;5052613;28;20237;-58